sensor_id;sensor_type;location;lat;lon;timestamp;temperature;humidity
5956;DHT22;3004;48.080;11.600;2023-06-26T00:02:23;13.10;99.90
5956;DHT22;3004;48.080;11.600;2023-06-26T00:04:50;13.20;99.90
5956;DHT22;3004;48.080;11.600;2023-06-26T00:07:19;13.20;99.90
5956;DHT22;3004;48.080;11.600;2023-06-26T00:09:47;13.10;99.90
5956;DHT22;3004;48.080;11.600;2023-06-26T00:12:14;13.00;99.90
5956;DHT22;3004;48.080;11.600;2023-06-26T00:14:41;13.00;99.90
5956;DHT22;3004;48.080;11.600;2023-06-26T00:17:08;12.90;99.90
5956;DHT22;3004;48.080;11.600;2023-06-26T00:19:35;12.90;99.90
5956;DHT22;3004;48.080;11.600;2023-06-26T00:22:02;12.90;99.90
5956;DHT22;3004;48.080;11.600;2023-06-26T00:24:30;12.90;99.90
5956;DHT22;3004;48.080;11.600;2023-06-26T00:26:58;12.90;99.90
5956;DHT22;3004;48.080;11.600;2023-06-26T00:29:25;12.80;99.90
5956;DHT22;3004;48.080;11.600;2023-06-26T00:31:52;12.90;99.90
5956;DHT22;3004;48.080;11.600;2023-06-26T00:34:19;12.90;99.90
5956;DHT22;3004;48.080;11.600;2023-06-26T00:36:46;12.70;99.90
5956;DHT22;3004;48.080;11.600;2023-06-26T00:39:13;12.60;99.90
5956;DHT22;3004;48.080;11.600;2023-06-26T00:41:40;12.60;99.90
5956;DHT22;3004;48.080;11.600;2023-06-26T00:44:09;12.60;99.90
5956;DHT22;3004;48.080;11.600;2023-06-26T00:46:36;12.60;99.90
5956;DHT22;3004;48.080;11.600;2023-06-26T00:49:04;12.60;99.90
5956;DHT22;3004;48.080;11.600;2023-06-26T00:51:31;12.60;99.90
5956;DHT22;3004;48.080;11.600;2023-06-26T00:53:59;12.60;99.90
5956;DHT22;3004;48.080;11.600;2023-06-26T00:56:27;12.50;99.90
5956;DHT22;3004;48.080;11.600;2023-06-26T00:58:55;12.50;99.90
5956;DHT22;3004;48.080;11.600;2023-06-26T01:01:26;12.40;99.90
5956;DHT22;3004;48.080;11.600;2023-06-26T01:03:53;12.40;99.90
5956;DHT22;3004;48.080;11.600;2023-06-26T01:06:23;12.40;99.90
5956;DHT22;3004;48.080;11.600;2023-06-26T01:08:52;12.30;99.90
5956;DHT22;3004;48.080;11.600;2023-06-26T01:11:19;12.40;99.90
5956;DHT22;3004;48.080;11.600;2023-06-26T01:13:46;12.30;99.90
5956;DHT22;3004;48.080;11.600;2023-06-26T01:16:16;12.10;99.90
5956;DHT22;3004;48.080;11.600;2023-06-26T01:18:47;12.10;99.90
5956;DHT22;3004;48.080;11.600;2023-06-26T01:21:15;12.10;99.90
5956;DHT22;3004;48.080;11.600;2023-06-26T01:23:54;12.20;99.90
5956;DHT22;3004;48.080;11.600;2023-06-26T01:26:27;12.20;99.90
5956;DHT22;3004;48.080;11.600;2023-06-26T01:28:58;12.10;99.90
5956;DHT22;3004;48.080;11.600;2023-06-26T01:31:44;12.10;99.90
5956;DHT22;3004;48.080;11.600;2023-06-26T01:34:15;12.00;99.90
5956;DHT22;3004;48.080;11.600;2023-06-26T01:36:42;12.00;99.90
5956;DHT22;3004;48.080;11.600;2023-06-26T01:39:09;12.00;99.90
5956;DHT22;3004;48.080;11.600;2023-06-26T01:41:37;12.00;99.90
5956;DHT22;3004;48.080;11.600;2023-06-26T01:44:15;12.00;99.90
5956;DHT22;3004;48.080;11.600;2023-06-26T01:46:52;12.00;99.90
5956;DHT22;3004;48.080;11.600;2023-06-26T01:49:24;12.00;99.90
5956;DHT22;3004;48.080;11.600;2023-06-26T01:51:58;12.00;99.90
5956;DHT22;3004;48.080;11.600;2023-06-26T01:54:26;12.00;99.90
5956;DHT22;3004;48.080;11.600;2023-06-26T01:56:58;12.00;99.90
5956;DHT22;3004;48.080;11.600;2023-06-26T01:59:26;11.90;99.90
5956;DHT22;3004;48.080;11.600;2023-06-26T02:01:55;11.90;99.90
5956;DHT22;3004;48.080;11.600;2023-06-26T02:04:22;11.80;99.90
5956;DHT22;3004;48.080;11.600;2023-06-26T02:06:49;11.80;99.90
5956;DHT22;3004;48.080;11.600;2023-06-26T02:09:16;11.80;99.90
5956;DHT22;3004;48.080;11.600;2023-06-26T02:11:43;11.70;99.90
5956;DHT22;3004;48.080;11.600;2023-06-26T02:14:12;11.70;99.90
5956;DHT22;3004;48.080;11.600;2023-06-26T02:16:39;11.70;99.90
5956;DHT22;3004;48.080;11.600;2023-06-26T02:19:06;11.70;99.90
5956;DHT22;3004;48.080;11.600;2023-06-26T02:21:32;11.70;99.90
5956;DHT22;3004;48.080;11.600;2023-06-26T02:24:01;11.70;99.90
5956;DHT22;3004;48.080;11.600;2023-06-26T02:26:30;11.70;99.90
5956;DHT22;3004;48.080;11.600;2023-06-26T02:28:57;11.80;99.90
5956;DHT22;3004;48.080;11.600;2023-06-26T02:31:25;11.60;99.90
5956;DHT22;3004;48.080;11.600;2023-06-26T02:33:52;11.70;99.90
5956;DHT22;3004;48.080;11.600;2023-06-26T02:36:19;11.60;99.90
5956;DHT22;3004;48.080;11.600;2023-06-26T02:38:46;11.60;99.90
5956;DHT22;3004;48.080;11.600;2023-06-26T02:41:13;11.60;99.90
5956;DHT22;3004;48.080;11.600;2023-06-26T02:43:40;11.60;99.90
5956;DHT22;3004;48.080;11.600;2023-06-26T02:46:07;11.60;99.90
5956;DHT22;3004;48.080;11.600;2023-06-26T02:48:37;11.60;99.90
5956;DHT22;3004;48.080;11.600;2023-06-26T02:51:04;11.50;99.90
5956;DHT22;3004;48.080;11.600;2023-06-26T02:53:32;11.60;99.90
5956;DHT22;3004;48.080;11.600;2023-06-26T02:55:58;11.60;99.90
5956;DHT22;3004;48.080;11.600;2023-06-26T02:58:25;11.60;99.90
5956;DHT22;3004;48.080;11.600;2023-06-26T03:00:52;11.70;99.90
5956;DHT22;3004;48.080;11.600;2023-06-26T03:03:20;11.60;99.90
5956;DHT22;3004;48.080;11.600;2023-06-26T03:05:49;11.60;99.90
5956;DHT22;3004;48.080;11.600;2023-06-26T03:08:16;11.60;99.90
5956;DHT22;3004;48.080;11.600;2023-06-26T03:10:44;11.60;99.90
5956;DHT22;3004;48.080;11.600;2023-06-26T03:13:11;11.50;99.90
5956;DHT22;3004;48.080;11.600;2023-06-26T03:15:38;11.50;99.90
5956;DHT22;3004;48.080;11.600;2023-06-26T03:18:05;11.50;99.90
5956;DHT22;3004;48.080;11.600;2023-06-26T03:20:32;11.50;99.90
5956;DHT22;3004;48.080;11.600;2023-06-26T03:23:00;11.50;99.90
5956;DHT22;3004;48.080;11.600;2023-06-26T03:25:27;11.40;99.90
5956;DHT22;3004;48.080;11.600;2023-06-26T03:27:54;11.50;99.90
5956;DHT22;3004;48.080;11.600;2023-06-26T03:30:21;11.50;99.90
5956;DHT22;3004;48.080;11.600;2023-06-26T03:32:49;11.50;99.90
5956;DHT22;3004;48.080;11.600;2023-06-26T03:35:16;11.50;99.90
5956;DHT22;3004;48.080;11.600;2023-06-26T03:37:43;11.50;99.90
5956;DHT22;3004;48.080;11.600;2023-06-26T03:40:12;11.60;99.90
5956;DHT22;3004;48.080;11.600;2023-06-26T03:42:39;11.60;99.90
5956;DHT22;3004;48.080;11.600;2023-06-26T03:45:06;11.60;99.90
5956;DHT22;3004;48.080;11.600;2023-06-26T03:47:34;11.60;99.90
5956;DHT22;3004;48.080;11.600;2023-06-26T03:50:04;11.70;99.90
5956;DHT22;3004;48.080;11.600;2023-06-26T03:52:31;11.70;99.90
5956;DHT22;3004;48.080;11.600;2023-06-26T03:54:58;11.70;99.90
5956;DHT22;3004;48.080;11.600;2023-06-26T03:57:26;11.70;99.90
5956;DHT22;3004;48.080;11.600;2023-06-26T03:59:53;11.80;99.90
5956;DHT22;3004;48.080;11.600;2023-06-26T04:02:20;11.80;99.90
5956;DHT22;3004;48.080;11.600;2023-06-26T04:04:48;11.90;99.90
5956;DHT22;3004;48.080;11.600;2023-06-26T04:07:15;12.00;99.90
5956;DHT22;3004;48.080;11.600;2023-06-26T04:09:42;12.00;99.90
5956;DHT22;3004;48.080;11.600;2023-06-26T04:12:11;12.10;99.90
5956;DHT22;3004;48.080;11.600;2023-06-26T04:14:40;12.10;99.90
5956;DHT22;3004;48.080;11.600;2023-06-26T04:17:07;12.20;99.90
5956;DHT22;3004;48.080;11.600;2023-06-26T04:19:34;12.20;99.90
5956;DHT22;3004;48.080;11.600;2023-06-26T04:22:02;12.40;99.90
5956;DHT22;3004;48.080;11.600;2023-06-26T04:24:29;12.40;99.90
5956;DHT22;3004;48.080;11.600;2023-06-26T04:26:56;12.40;99.90
5956;DHT22;3004;48.080;11.600;2023-06-26T04:29:41;12.40;99.90
5956;DHT22;3004;48.080;11.600;2023-06-26T04:32:11;12.50;99.90
5956;DHT22;3004;48.080;11.600;2023-06-26T04:34:38;12.70;99.90
5956;DHT22;3004;48.080;11.600;2023-06-26T04:37:08;12.80;99.90
5956;DHT22;3004;48.080;11.600;2023-06-26T04:39:36;12.90;99.90
5956;DHT22;3004;48.080;11.600;2023-06-26T04:42:05;13.00;99.90
5956;DHT22;3004;48.080;11.600;2023-06-26T04:44:32;13.10;99.90
5956;DHT22;3004;48.080;11.600;2023-06-26T04:46:59;13.30;99.90
5956;DHT22;3004;48.080;11.600;2023-06-26T04:49:28;13.40;99.90
5956;DHT22;3004;48.080;11.600;2023-06-26T04:51:55;13.50;99.90
5956;DHT22;3004;48.080;11.600;2023-06-26T04:54:26;13.60;99.90
5956;DHT22;3004;48.080;11.600;2023-06-26T04:56:53;13.70;99.90
5956;DHT22;3004;48.080;11.600;2023-06-26T04:59:21;13.90;99.90
5956;DHT22;3004;48.080;11.600;2023-06-26T05:01:48;14.00;99.90
5956;DHT22;3004;48.080;11.600;2023-06-26T05:04:15;14.00;99.90
5956;DHT22;3004;48.080;11.600;2023-06-26T05:06:45;14.20;99.90
5956;DHT22;3004;48.080;11.600;2023-06-26T05:09:12;14.40;99.90
5956;DHT22;3004;48.080;11.600;2023-06-26T05:11:39;14.50;99.90
5956;DHT22;3004;48.080;11.600;2023-06-26T05:14:06;14.60;99.90
5956;DHT22;3004;48.080;11.600;2023-06-26T05:16:34;14.80;99.90
5956;DHT22;3004;48.080;11.600;2023-06-26T05:19:42;14.90;99.90
5956;DHT22;3004;48.080;11.600;2023-06-26T05:22:20;15.10;99.90
5956;DHT22;3004;48.080;11.600;2023-06-26T05:24:48;15.20;99.90
5956;DHT22;3004;48.080;11.600;2023-06-26T05:27:19;15.30;99.90
5956;DHT22;3004;48.080;11.600;2023-06-26T05:29:47;15.50;99.90
5956;DHT22;3004;48.080;11.600;2023-06-26T05:32:16;15.70;99.90
5956;DHT22;3004;48.080;11.600;2023-06-26T05:34:45;15.90;99.90
5956;DHT22;3004;48.080;11.600;2023-06-26T05:37:17;16.10;99.90
5956;DHT22;3004;48.080;11.600;2023-06-26T05:39:46;16.30;99.90
5956;DHT22;3004;48.080;11.600;2023-06-26T05:42:14;16.40;99.90
5956;DHT22;3004;48.080;11.600;2023-06-26T05:44:41;16.60;99.90
5956;DHT22;3004;48.080;11.600;2023-06-26T05:47:10;16.90;99.90
5956;DHT22;3004;48.080;11.600;2023-06-26T05:50:01;17.20;99.90
5956;DHT22;3004;48.080;11.600;2023-06-26T05:56:01;17.60;99.90
5956;DHT22;3004;48.080;11.600;2023-06-26T05:58:28;18.00;99.90
5956;DHT22;3004;48.080;11.600;2023-06-26T06:00:56;18.20;99.90
5956;DHT22;3004;48.080;11.600;2023-06-26T06:03:23;18.40;99.90
5956;DHT22;3004;48.080;11.600;2023-06-26T06:05:50;18.50;99.90
5956;DHT22;3004;48.080;11.600;2023-06-26T06:08:19;18.60;99.90
5956;DHT22;3004;48.080;11.600;2023-06-26T06:10:46;18.80;99.90
5956;DHT22;3004;48.080;11.600;2023-06-26T06:13:34;19.10;99.90
5956;DHT22;3004;48.080;11.600;2023-06-26T06:16:02;19.30;99.90
5956;DHT22;3004;48.080;11.600;2023-06-26T06:18:29;19.50;99.90
5956;DHT22;3004;48.080;11.600;2023-06-26T06:21:05;19.50;99.90
5956;DHT22;3004;48.080;11.600;2023-06-26T06:23:33;19.90;99.90
5956;DHT22;3004;48.080;11.600;2023-06-26T06:26:00;20.00;99.90
5956;DHT22;3004;48.080;11.600;2023-06-26T06:28:44;20.20;99.90
5956;DHT22;3004;48.080;11.600;2023-06-26T06:31:11;20.30;99.90
5956;DHT22;3004;48.080;11.600;2023-06-26T06:33:41;20.60;99.90
5956;DHT22;3004;48.080;11.600;2023-06-26T06:36:08;20.60;99.90
5956;DHT22;3004;48.080;11.600;2023-06-26T06:38:47;20.70;99.90
5956;DHT22;3004;48.080;11.600;2023-06-26T06:41:16;20.80;99.90
5956;DHT22;3004;48.080;11.600;2023-06-26T06:43:43;21.10;99.90
5956;DHT22;3004;48.080;11.600;2023-06-26T06:46:10;21.20;99.90
5956;DHT22;3004;48.080;11.600;2023-06-26T06:48:37;21.50;99.90
5956;DHT22;3004;48.080;11.600;2023-06-26T06:51:04;21.70;99.90
5956;DHT22;3004;48.080;11.600;2023-06-26T06:53:31;21.80;99.90
5956;DHT22;3004;48.080;11.600;2023-06-26T06:56:02;21.80;99.90
5956;DHT22;3004;48.080;11.600;2023-06-26T06:58:29;22.10;99.90
5956;DHT22;3004;48.080;11.600;2023-06-26T07:00:59;22.10;99.90
5956;DHT22;3004;48.080;11.600;2023-06-26T07:03:28;22.20;99.90
5956;DHT22;3004;48.080;11.600;2023-06-26T07:05:55;22.30;99.90
5956;DHT22;3004;48.080;11.600;2023-06-26T07:08:22;22.40;99.90
5956;DHT22;3004;48.080;11.600;2023-06-26T07:10:49;22.60;99.90
5956;DHT22;3004;48.080;11.600;2023-06-26T07:13:18;22.70;99.90
5956;DHT22;3004;48.080;11.600;2023-06-26T07:15:48;22.70;99.90
5956;DHT22;3004;48.080;11.600;2023-06-26T07:18:16;22.90;99.90
5956;DHT22;3004;48.080;11.600;2023-06-26T07:20:43;23.00;99.90
5956;DHT22;3004;48.080;11.600;2023-06-26T07:23:10;23.40;99.90
5956;DHT22;3004;48.080;11.600;2023-06-26T07:25:37;23.40;99.90
5956;DHT22;3004;48.080;11.600;2023-06-26T07:28:09;23.60;99.90
5956;DHT22;3004;48.080;11.600;2023-06-26T07:30:38;23.80;99.90
5956;DHT22;3004;48.080;11.600;2023-06-26T07:33:05;23.80;99.90
5956;DHT22;3004;48.080;11.600;2023-06-26T07:35:33;23.80;99.90
5956;DHT22;3004;48.080;11.600;2023-06-26T07:38:00;23.90;99.90
5956;DHT22;3004;48.080;11.600;2023-06-26T07:40:27;24.00;99.90
5956;DHT22;3004;48.080;11.600;2023-06-26T07:43:00;24.10;99.90
5956;DHT22;3004;48.080;11.600;2023-06-26T07:45:29;24.20;99.90
5956;DHT22;3004;48.080;11.600;2023-06-26T07:50:42;24.40;99.90
5956;DHT22;3004;48.080;11.600;2023-06-26T07:53:10;24.50;99.90
5956;DHT22;3004;48.080;11.600;2023-06-26T07:55:38;24.60;99.90
5956;DHT22;3004;48.080;11.600;2023-06-26T07:58:05;24.60;99.90
5956;DHT22;3004;48.080;11.600;2023-06-26T08:00:34;24.70;99.90
5956;DHT22;3004;48.080;11.600;2023-06-26T08:03:07;24.80;99.90
5956;DHT22;3004;48.080;11.600;2023-06-26T08:05:37;25.00;99.90
5956;DHT22;3004;48.080;11.600;2023-06-26T08:08:07;25.00;99.90
5956;DHT22;3004;48.080;11.600;2023-06-26T08:10:35;25.00;99.90
5956;DHT22;3004;48.080;11.600;2023-06-26T08:13:02;25.00;99.90
5956;DHT22;3004;48.080;11.600;2023-06-26T08:15:36;25.00;99.90
5956;DHT22;3004;48.080;11.600;2023-06-26T08:18:03;25.00;99.90
5956;DHT22;3004;48.080;11.600;2023-06-26T08:20:30;25.30;99.90
5956;DHT22;3004;48.080;11.600;2023-06-26T08:22:58;25.30;99.90
5956;DHT22;3004;48.080;11.600;2023-06-26T08:25:31;25.30;99.90
5956;DHT22;3004;48.080;11.600;2023-06-26T08:27:58;25.40;99.90
5956;DHT22;3004;48.080;11.600;2023-06-26T08:30:30;25.40;99.90
5956;DHT22;3004;48.080;11.600;2023-06-26T08:32:57;25.60;99.90
5956;DHT22;3004;48.080;11.600;2023-06-26T08:35:24;25.60;99.90
5956;DHT22;3004;48.080;11.600;2023-06-26T08:40:43;25.70;99.90
5956;DHT22;3004;48.080;11.600;2023-06-26T08:43:32;25.80;99.90
5956;DHT22;3004;48.080;11.600;2023-06-26T08:45:59;25.80;99.90
5956;DHT22;3004;48.080;11.600;2023-06-26T08:48:42;26.00;99.90
5956;DHT22;3004;48.080;11.600;2023-06-26T09:00:08;26.40;99.90
5956;DHT22;3004;48.080;11.600;2023-06-26T09:27:20;26.90;99.90
5956;DHT22;3004;48.080;11.600;2023-06-26T09:30:10;27.20;99.90
5956;DHT22;3004;48.080;11.600;2023-06-26T09:41:59;27.40;99.90
5956;DHT22;3004;48.080;11.600;2023-06-26T10:05:18;27.50;99.90
5956;DHT22;3004;48.080;11.600;2023-06-26T10:08:27;27.30;99.90
5956;DHT22;3004;48.080;11.600;2023-06-26T10:44:44;29.20;99.30
5956;DHT22;3004;48.080;11.600;2023-06-26T10:50:52;28.60;99.80
5956;DHT22;3004;48.080;11.600;2023-06-26T11:00:43;27.90;99.80
5956;DHT22;3004;48.080;11.600;2023-06-26T11:03:31;27.80;99.90
5956;DHT22;3004;48.080;11.600;2023-06-26T11:06:10;28.10;99.90
5956;DHT22;3004;48.080;11.600;2023-06-26T11:08:48;28.40;99.00
5956;DHT22;3004;48.080;11.600;2023-06-26T11:14:14;29.50;99.30
5956;DHT22;3004;48.080;11.600;2023-06-26T11:23:57;29.10;99.50
5956;DHT22;3004;48.080;11.600;2023-06-26T11:27:09;29.40;99.50
5956;DHT22;3004;48.080;11.600;2023-06-26T11:50:06;29.00;99.60
5956;DHT22;3004;48.080;11.600;2023-06-26T11:53:28;28.90;99.90
5956;DHT22;3004;48.080;11.600;2023-06-26T11:59:57;29.40;98.50
5956;DHT22;3004;48.080;11.600;2023-06-26T12:02:50;29.80;97.90
5956;DHT22;3004;48.080;11.600;2023-06-26T12:08:44;29.30;98.40
5956;DHT22;3004;48.080;11.600;2023-06-26T12:27:57;29.90;98.90
5956;DHT22;3004;48.080;11.600;2023-06-26T12:31:21;30.10;99.00
5956;DHT22;3004;48.080;11.600;2023-06-26T12:34:11;30.00;97.90
5956;DHT22;3004;48.080;11.600;2023-06-26T12:37:36;29.80;98.60
5956;DHT22;3004;48.080;11.600;2023-06-26T12:50:09;29.90;98.20
5956;DHT22;3004;48.080;11.600;2023-06-26T12:56:18;30.40;97.40
5956;DHT22;3004;48.080;11.600;2023-06-26T12:59:14;30.70;96.90
5956;DHT22;3004;48.080;11.600;2023-06-26T13:01:50;30.90;97.20
5956;DHT22;3004;48.080;11.600;2023-06-26T13:04:51;30.40;97.20
5956;DHT22;3004;48.080;11.600;2023-06-26T13:17:08;30.20;96.90
5956;DHT22;3004;48.080;11.600;2023-06-26T13:53:14;29.60;99.50
5956;DHT22;3004;48.080;11.600;2023-06-26T13:55:52;29.90;99.00
5956;DHT22;3004;48.080;11.600;2023-06-26T14:06:00;29.00;98.90
5956;DHT22;3004;48.080;11.600;2023-06-26T14:09:01;28.80;99.70
5956;DHT22;3004;48.080;11.600;2023-06-26T15:15:37;29.80;97.00
5956;DHT22;3004;48.080;11.600;2023-06-26T15:18:33;29.50;97.60
5956;DHT22;3004;48.080;11.600;2023-06-26T16:05:40;27.90;99.90
5956;DHT22;3004;48.080;11.600;2023-06-26T16:12:05;27.40;99.90
5956;DHT22;3004;48.080;11.600;2023-06-26T16:35:08;26.50;99.90
5956;DHT22;3004;48.080;11.600;2023-06-26T16:45:10;26.50;99.90
5956;DHT22;3004;48.080;11.600;2023-06-26T17:02:30;26.30;99.90
5956;DHT22;3004;48.080;11.600;2023-06-26T17:05:27;26.30;99.90
5956;DHT22;3004;48.080;11.600;2023-06-26T17:08:31;26.20;99.90
5956;DHT22;3004;48.080;11.600;2023-06-26T17:11:12;26.20;99.90
5956;DHT22;3004;48.080;11.600;2023-06-26T17:13:53;26.20;99.90
5956;DHT22;3004;48.080;11.600;2023-06-26T17:16:45;26.20;99.90
5956;DHT22;3004;48.080;11.600;2023-06-26T17:20:38;26.10;99.90
5956;DHT22;3004;48.080;11.600;2023-06-26T17:25:32;26.20;99.90
5956;DHT22;3004;48.080;11.600;2023-06-26T17:28:13;26.10;99.90
5956;DHT22;3004;48.080;11.600;2023-06-26T17:30:49;26.10;99.90
5956;DHT22;3004;48.080;11.600;2023-06-26T17:33:34;26.10;99.90
5956;DHT22;3004;48.080;11.600;2023-06-26T17:36:33;26.10;99.90
5956;DHT22;3004;48.080;11.600;2023-06-26T17:39:14;26.00;99.90
5956;DHT22;3004;48.080;11.600;2023-06-26T17:41:48;26.00;99.90
5956;DHT22;3004;48.080;11.600;2023-06-26T17:51:16;26.20;99.90
5956;DHT22;3004;48.080;11.600;2023-06-26T18:12:00;25.20;99.90
5956;DHT22;3004;48.080;11.600;2023-06-26T18:14:52;25.10;99.90
5956;DHT22;3004;48.080;11.600;2023-06-26T18:17:22;24.90;99.90
5956;DHT22;3004;48.080;11.600;2023-06-26T18:20:06;24.70;99.90
5956;DHT22;3004;48.080;11.600;2023-06-26T18:26:14;24.50;99.90
5956;DHT22;3004;48.080;11.600;2023-06-26T18:29:18;24.30;99.90
5956;DHT22;3004;48.080;11.600;2023-06-26T18:32:29;24.10;99.90
5956;DHT22;3004;48.080;11.600;2023-06-26T18:35:04;24.10;99.90
5956;DHT22;3004;48.080;11.600;2023-06-26T18:37:58;23.90;99.90
5956;DHT22;3004;48.080;11.600;2023-06-26T18:40:41;24.00;99.90
5956;DHT22;3004;48.080;11.600;2023-06-26T18:43:19;23.90;99.90
5956;DHT22;3004;48.080;11.600;2023-06-26T18:46:19;23.90;99.90
5956;DHT22;3004;48.080;11.600;2023-06-26T18:49:15;23.80;99.90
5956;DHT22;3004;48.080;11.600;2023-06-26T18:52:07;23.70;99.90
5956;DHT22;3004;48.080;11.600;2023-06-26T18:54:46;23.60;99.90
5956;DHT22;3004;48.080;11.600;2023-06-26T18:57:13;23.50;99.90
5956;DHT22;3004;48.080;11.600;2023-06-26T18:59:45;23.50;99.90
5956;DHT22;3004;48.080;11.600;2023-06-26T19:02:26;23.40;99.90
5956;DHT22;3004;48.080;11.600;2023-06-26T19:05:09;23.30;99.90
5956;DHT22;3004;48.080;11.600;2023-06-26T19:07:55;23.40;99.90
5956;DHT22;3004;48.080;11.600;2023-06-26T19:14:25;23.30;99.90
5956;DHT22;3004;48.080;11.600;2023-06-26T19:42:16;22.70;99.90
5956;DHT22;3004;48.080;11.600;2023-06-26T19:45:45;22.70;99.90
5956;DHT22;3004;48.080;11.600;2023-06-26T19:52:48;22.60;99.90
5956;DHT22;3004;48.080;11.600;2023-06-26T19:55:34;22.50;99.90
5956;DHT22;3004;48.080;11.600;2023-06-26T19:58:32;22.50;99.90
5956;DHT22;3004;48.080;11.600;2023-06-26T20:08:14;22.30;99.90
5956;DHT22;3004;48.080;11.600;2023-06-26T20:10:53;22.10;99.90
5956;DHT22;3004;48.080;11.600;2023-06-26T20:17:10;22.00;99.90
5956;DHT22;3004;48.080;11.600;2023-06-26T20:20:04;21.90;99.90
5956;DHT22;3004;48.080;11.600;2023-06-26T20:23:03;21.80;99.90
5956;DHT22;3004;48.080;11.600;2023-06-26T20:26:49;21.70;99.90
5956;DHT22;3004;48.080;11.600;2023-06-26T20:29:13;21.60;99.90
5956;DHT22;3004;48.080;11.600;2023-06-26T20:32:34;21.60;99.90
5956;DHT22;3004;48.080;11.600;2023-06-26T20:35:17;21.60;99.90
5956;DHT22;3004;48.080;11.600;2023-06-26T20:37:59;21.50;99.90
5956;DHT22;3004;48.080;11.600;2023-06-26T20:43:48;21.40;99.90
5956;DHT22;3004;48.080;11.600;2023-06-26T20:46:16;21.30;99.90
5956;DHT22;3004;48.080;11.600;2023-06-26T20:48:59;21.30;99.90
5956;DHT22;3004;48.080;11.600;2023-06-26T20:51:40;21.30;99.90
5956;DHT22;3004;48.080;11.600;2023-06-26T20:58:25;21.10;99.90
5956;DHT22;3004;48.080;11.600;2023-06-26T21:01:01;21.00;99.90
5956;DHT22;3004;48.080;11.600;2023-06-26T21:03:51;21.00;99.90
5956;DHT22;3004;48.080;11.600;2023-06-26T21:06:22;21.00;99.90
5956;DHT22;3004;48.080;11.600;2023-06-26T21:09:30;21.00;99.90
5956;DHT22;3004;48.080;11.600;2023-06-26T21:15:49;20.90;99.90
5956;DHT22;3004;48.080;11.600;2023-06-26T21:18:50;20.90;99.90
5956;DHT22;3004;48.080;11.600;2023-06-26T21:22:00;20.80;99.90
5956;DHT22;3004;48.080;11.600;2023-06-26T21:24:59;20.70;99.90
5956;DHT22;3004;48.080;11.600;2023-06-26T21:28:06;20.70;99.90
5956;DHT22;3004;48.080;11.600;2023-06-26T21:31:06;20.70;99.90
5956;DHT22;3004;48.080;11.600;2023-06-26T21:33:44;20.60;99.90
5956;DHT22;3004;48.080;11.600;2023-06-26T21:36:35;20.60;99.90
5956;DHT22;3004;48.080;11.600;2023-06-26T21:39:41;20.50;99.90
5956;DHT22;3004;48.080;11.600;2023-06-26T21:42:25;20.40;99.90
5956;DHT22;3004;48.080;11.600;2023-06-26T21:45:09;20.40;99.90
5956;DHT22;3004;48.080;11.600;2023-06-26T21:47:39;20.40;99.90
5956;DHT22;3004;48.080;11.600;2023-06-26T21:50:34;20.40;99.90
5956;DHT22;3004;48.080;11.600;2023-06-26T21:56:09;20.40;99.90
5956;DHT22;3004;48.080;11.600;2023-06-26T21:58:52;20.50;99.90
5956;DHT22;3004;48.080;11.600;2023-06-26T22:05:08;20.40;99.90
5956;DHT22;3004;48.080;11.600;2023-06-26T22:07:51;20.50;99.90
5956;DHT22;3004;48.080;11.600;2023-06-26T22:10:58;20.50;99.90
5956;DHT22;3004;48.080;11.600;2023-06-26T22:14:27;20.40;99.90
5956;DHT22;3004;48.080;11.600;2023-06-26T22:17:28;20.50;99.90
5956;DHT22;3004;48.080;11.600;2023-06-26T22:27:36;20.30;99.90
5956;DHT22;3004;48.080;11.600;2023-06-26T22:33:18;20.40;99.90
5956;DHT22;3004;48.080;11.600;2023-06-26T22:35:59;20.30;99.90
5956;DHT22;3004;48.080;11.600;2023-06-26T22:38:30;20.30;99.90
5956;DHT22;3004;48.080;11.600;2023-06-26T22:42:05;20.30;99.90
5956;DHT22;3004;48.080;11.600;2023-06-26T22:44:42;20.30;99.90
5956;DHT22;3004;48.080;11.600;2023-06-26T22:47:22;20.30;99.90
5956;DHT22;3004;48.080;11.600;2023-06-26T22:50:14;20.30;99.90
5956;DHT22;3004;48.080;11.600;2023-06-26T22:52:55;20.30;99.90
5956;DHT22;3004;48.080;11.600;2023-06-26T22:55:23;20.30;99.90
5956;DHT22;3004;48.080;11.600;2023-06-26T22:57:50;20.20;99.90
5956;DHT22;3004;48.080;11.600;2023-06-26T23:00:40;20.20;99.90
5956;DHT22;3004;48.080;11.600;2023-06-26T23:03:22;20.10;99.90
5956;DHT22;3004;48.080;11.600;2023-06-26T23:05:49;20.20;99.90
5956;DHT22;3004;48.080;11.600;2023-06-26T23:08:22;20.20;99.90
5956;DHT22;3004;48.080;11.600;2023-06-26T23:11:05;20.20;99.90
5956;DHT22;3004;48.080;11.600;2023-06-26T23:13:40;20.10;99.90
5956;DHT22;3004;48.080;11.600;2023-06-26T23:16:10;20.10;99.90
5956;DHT22;3004;48.080;11.600;2023-06-26T23:19:09;20.10;99.90
5956;DHT22;3004;48.080;11.600;2023-06-26T23:21:39;20.00;99.90
5956;DHT22;3004;48.080;11.600;2023-06-26T23:24:14;20.00;99.90
5956;DHT22;3004;48.080;11.600;2023-06-26T23:26:42;19.90;99.90
5956;DHT22;3004;48.080;11.600;2023-06-26T23:29:26;19.90;99.90
5956;DHT22;3004;48.080;11.600;2023-06-26T23:32:21;19.80;99.90
5956;DHT22;3004;48.080;11.600;2023-06-26T23:34:50;19.90;99.90
5956;DHT22;3004;48.080;11.600;2023-06-26T23:37:19;19.80;99.90
5956;DHT22;3004;48.080;11.600;2023-06-26T23:40:07;19.80;99.90
5956;DHT22;3004;48.080;11.600;2023-06-26T23:42:44;19.80;99.90
5956;DHT22;3004;48.080;11.600;2023-06-26T23:45:15;19.70;99.90
5956;DHT22;3004;48.080;11.600;2023-06-26T23:48:12;19.70;99.90
5956;DHT22;3004;48.080;11.600;2023-06-26T23:50:46;19.70;99.90
5956;DHT22;3004;48.080;11.600;2023-06-26T23:53:46;19.60;99.90
5956;DHT22;3004;48.080;11.600;2023-06-26T23:56:27;19.60;99.90
5956;DHT22;3004;48.080;11.600;2023-06-26T23:58:55;19.50;99.90
